Macau International Airport
VMMC : now visible

Airfield :











YOU CAN JOIN US ON...

 
LOGIN :

Register | Disclaimer

   EN    FR    IT 

 









Legend :    VFR   Marginal VFR   IFR   Intensive IFR   Very Intensive IFR
Visi :
Ceiling :
>= 8 km
>= 3000ft
5 to 8 km
1000 to 3000 ft
1500m to 5 km
500 to 1000 ft
800 to 1500m
200 to 500 ft
< 800m
< 200 ft
Symbols :   Thunderstorms  Fog  Heavy snow  Heavy precipitations  Wind > 20 kt







- Airport Elevation : 20 ft
- IATA code : MFM


VMMC - Macau International

CURRENT METAR :
  • 201230Z 14004KT 9000 FEW010 SCT025 22/22 Q1018 NOSIG

EXPIRED METARs :
  • 201200Z 15007KT 9999 FEW010 SCT030 22/22 Q1017 NOSIG
  • 201130Z 14007KT 9999 FEW010 SCT028 22/22 Q1017 NOSIG
  • 201100Z 15006KT 7000 FEW007 SCT025 22/22 Q1017 NOSIG
  • 201030Z 13007KT 4800 BR FEW004 SCT018 22/22 Q1016 NOSIG
  • 201000Z 13004KT 100V190 4800 BR FEW004 SCT012 BKN035 22/22 Q1017 NOSIG

TAF TAF VMMC
Valid from the 20 at 12:00 until the 21 at 18:00 UTC


201100Z 2012/2118 14006KT 6000 FEW005 SCT012 BKN035
TEMPO 2012/2016 2500 BR
TEMPO 2016/2021 1200 BR
TEMPO 2021/2103 0300 FG VV001
TEMPO 2103/2108 2500 SHRA BR
BECMG 2115/2118 36012KT
ZGZU FIR / Asia



MET'MAP, your aeronautical weather chart ! - Copyright ORBIFLY December 2007 - Disclaimer

ORBIFLY MET'MAP TEAM :

Programming & Development : Alexandra Zaïnal
Concept & Development : Baudouin d'Aumeries
Co-Development & Prog : Marc-Olivier Méhu
Technical & hardware support : Manuel Goepfert

Contact : metmap@orbifly.com




SOURCES & CREDITS :

   NOAA       Earth
Advisory